Saint George, Virginia
Current Conditions -  °F | °C
As of 12:53 AM on Saturday 29 Nov 2014 (Local Time) from KCHO Reporting Station
Clear Clear  
Wind Chill: 28°   Ceiling: Unl
Heat Index: 28°   Visibility: 10mi
Dew Point: 20°   Wind: 3mph
Humidity: 72%   Direction: 350°N
Pressure: 30.27"   Gusts: NA
Location:  38.2663°N, 78.5808°W
Report Text: KCHO 290553Z AUTO 35003KT 10SM CLR M02/M07 A3027 RMK AO2 SLP255 T10221067 10011 21022 53005
Loading
Personal Weather Stations






























Interactive Weather Map New forecast layout! Learn more

10-Day Weather Forecast

Advertisements
Track Severe Weather on mobile